createdAt,value
2019-06-01T00:01:55.533Z,2.40
2019-06-01T00:04:22.080Z,2.73
2019-06-01T00:06:49.047Z,2.40
2019-06-01T00:09:15.640Z,2.40
2019-06-01T00:11:45.649Z,2.40
2019-06-01T00:14:12.350Z,2.37
2019-06-01T00:16:39.919Z,2.80
2019-06-01T00:19:06.772Z,2.30
2019-06-01T00:21:34.341Z,2.47
2019-06-01T00:24:01.479Z,2.27
2019-06-01T00:26:27.974Z,2.80
2019-06-01T00:28:54.512Z,2.47
2019-06-01T00:31:21.016Z,3.23
2019-06-01T00:33:47.665Z,2.80
2019-06-01T00:36:14.159Z,2.97
2019-06-01T00:38:41.611Z,2.90
2019-06-01T00:41:08.323Z,2.63
2019-06-01T00:43:34.929Z,2.70
2019-06-01T00:46:01.422Z,2.33
2019-06-01T00:48:27.944Z,2.13
2019-06-01T00:50:54.792Z,2.43
2019-06-01T00:53:21.335Z,3.10
2019-06-01T00:55:47.968Z,2.50
2019-06-01T00:58:15.638Z,2.70
2019-06-01T01:00:45.201Z,2.70
2019-06-01T01:03:10.549Z,3.10
2019-06-01T01:05:37.102Z,2.80
2019-06-01T01:08:03.739Z,2.63
2019-06-01T01:10:30.315Z,2.47
2019-06-01T01:13:05.257Z,2.97
2019-06-01T01:15:31.935Z,2.70
2019-06-01T01:17:58.504Z,2.80
2019-06-01T01:20:25.132Z,2.80
2019-06-01T01:22:52.266Z,2.30
2019-06-01T01:25:19.021Z,2.63
2019-06-01T01:27:46.564Z,2.83
2019-06-01T01:30:13.324Z,2.97
2019-06-01T01:32:40.054Z,2.60
2019-06-01T01:35:07.087Z,2.60
2019-06-01T01:37:33.542Z,3.20
2019-06-01T01:40:00.385Z,3.07
2019-06-01T01:42:26.873Z,2.67
2019-06-01T01:44:54.639Z,3.50
2019-06-01T01:47:22.497Z,2.40
2019-06-01T01:49:50.025Z,2.90
2019-06-01T01:52:16.586Z,2.83
2019-06-01T01:54:43.341Z,2.40
2019-06-01T01:57:10.915Z,2.47
2019-06-01T01:59:37.423Z,3.03
2019-06-01T02:02:04.115Z,2.70
2019-06-01T02:04:30.849Z,2.90
2019-06-01T02:06:58.481Z,2.37
2019-06-01T02:09:25.035Z,2.40
2019-06-01T02:11:51.537Z,2.37
2019-06-01T02:14:19.445Z,2.50
2019-06-01T02:16:45.933Z,2.40
2019-06-01T02:19:13.002Z,2.27
2019-06-01T02:21:39.553Z,2.40
2019-06-01T02:24:07.095Z,2.90
2019-06-01T02:26:33.597Z,2.63
2019-06-01T02:29:01.483Z,2.73
2019-06-01T02:31:41.090Z,2.50
2019-06-01T02:33:58.524Z,2.33
2019-06-01T02:36:25.320Z,2.83
2019-06-01T02:38:51.841Z,2.40
2019-06-01T02:41:18.322Z,2.40
2019-06-01T02:43:44.841Z,3.10
2019-06-01T02:46:11.350Z,2.87
2019-06-01T02:48:37.920Z,3.20
2019-06-01T02:51:05.514Z,2.50
2019-06-01T02:53:32.153Z,2.77
2019-06-01T02:55:59.882Z,2.83
2019-06-01T02:58:26.712Z,2.33
2019-06-01T03:01:34.380Z,2.90
2019-06-01T03:04:03.366Z,3.40
2019-06-01T03:06:31.043Z,2.50
2019-06-01T03:08:59.909Z,2.70
2019-06-01T03:11:36.843Z,2.83
2019-06-01T03:14:06.630Z,2.60
2019-06-01T03:16:39.954Z,2.50
2019-06-01T03:19:05.987Z,3.07
2019-06-01T03:21:35.994Z,2.97
2019-06-01T03:24:08.151Z,2.80
2019-06-01T03:26:40.788Z,2.67
2019-06-01T03:29:09.505Z,2.63
2019-06-01T03:31:36.195Z,2.57
2019-06-01T03:34:15.192Z,2.47
2019-06-01T03:36:42.268Z,2.77
2019-06-01T03:39:09.060Z,2.40
2019-06-01T03:41:35.600Z,2.57
2019-06-01T03:44:02.598Z,2.73
2019-06-01T03:46:31.326Z,2.27
2019-06-01T03:49:01.381Z,2.90
2019-06-01T03:51:28.110Z,2.50
2019-06-01T03:53:54.918Z,3.00
2019-06-01T03:56:21.632Z,2.53
2019-06-01T03:58:48.146Z,3.10
2019-06-01T04:01:15.231Z,2.67
2019-06-01T04:03:42.229Z,2.70
2019-06-01T04:06:09.423Z,2.53
2019-06-01T04:08:36.658Z,2.97
2019-06-01T04:11:03.631Z,2.70
2019-06-01T04:13:33.165Z,2.57
2019-06-01T04:16:01.888Z,2.60
2019-06-01T04:18:32.827Z,2.47
2019-06-01T04:20:59.705Z,2.60
2019-06-01T04:23:26.269Z,2.77
2019-06-01T04:25:52.977Z,2.70
2019-06-01T04:28:19.719Z,2.57
2019-06-01T04:30:46.523Z,2.80
2019-06-01T04:33:13.362Z,2.63
2019-06-01T04:35:41.939Z,2.40
2019-06-01T04:38:09.304Z,3.00
2019-06-01T04:40:36.933Z,2.67
2019-06-01T04:43:11.981Z,3.00
2019-06-01T04:45:39.358Z,2.30
2019-06-01T04:48:06.400Z,2.50
2019-06-01T04:50:32.952Z,2.40
2019-06-01T04:52:59.723Z,2.47
2019-06-01T04:55:26.387Z,2.20
2019-06-01T04:57:52.956Z,2.30
2019-06-01T05:00:27.558Z,2.73
2019-06-01T05:02:49.833Z,2.63
2019-06-01T05:05:17.198Z,2.80
2019-06-01T05:07:43.801Z,2.53
2019-06-01T05:10:11.629Z,2.57
2019-06-01T05:12:41.498Z,2.50
2019-06-01T05:15:15.961Z,2.93
2019-06-01T05:17:43.069Z,2.47
2019-06-01T05:20:14.712Z,2.57
2019-06-01T05:22:42.009Z,3.17
2019-06-01T05:25:09.115Z,2.70
2019-06-01T05:27:35.985Z,2.80
2019-06-01T05:30:03.665Z,2.87
2019-06-01T05:32:30.580Z,2.67
2019-06-01T05:34:57.435Z,3.40
2019-06-01T05:37:24.513Z,2.90
2019-06-01T05:39:51.736Z,2.90
2019-06-01T05:42:20.866Z,2.43
2019-06-01T05:44:47.417Z,3.20
2019-06-01T05:47:16.233Z,3.03
2019-06-01T05:49:43.049Z,2.10
2019-06-01T05:52:10.404Z,2.43
2019-06-01T05:54:37.316Z,2.57
2019-06-01T05:57:04.473Z,2.50
2019-06-01T05:59:31.767Z,2.90
2019-06-01T06:01:58.651Z,2.80
2019-06-01T06:04:25.449Z,2.57
2019-06-01T06:06:52.124Z,3.20
2019-06-01T06:09:19.098Z,2.80
2019-06-01T06:11:45.684Z,2.33
2019-06-01T06:14:13.354Z,2.60
2019-06-01T06:16:40.232Z,2.47
2019-06-01T06:19:07.384Z,2.50
2019-06-01T06:21:34.102Z,2.00
2019-06-01T06:24:00.856Z,2.50
2019-06-01T06:26:27.938Z,2.30
2019-06-01T06:28:54.474Z,2.47
2019-06-01T06:31:21.245Z,2.27
2019-06-01T06:33:56.575Z,2.03
2019-06-01T06:36:19.846Z,2.37
2019-06-01T06:38:48.714Z,1.97
2019-06-01T06:41:16.045Z,1.83
2019-06-01T06:43:43.568Z,2.70
2019-06-01T06:46:10.151Z,2.27
2019-06-01T06:48:36.644Z,2.50
2019-06-01T06:51:03.643Z,2.63
2019-06-01T06:53:35.113Z,3.07
2019-06-01T06:55:58.895Z,3.23
2019-06-01T06:58:26.491Z,2.57
2019-06-01T07:00:54.366Z,2.60
2019-06-01T07:03:25.282Z,2.70
2019-06-01T07:05:52.391Z,2.40
2019-06-01T07:08:21.737Z,2.00
2019-06-01T07:10:48.457Z,2.40
2019-06-01T07:13:15.022Z,3.20
2019-06-01T07:15:42.041Z,2.50
2019-06-01T07:18:09.117Z,2.92
2019-06-01T07:20:36.215Z,2.50
2019-06-01T07:23:11.351Z,1.62
2019-06-01T07:25:39.123Z,2.67
2019-06-01T07:28:05.800Z,1.90
2019-06-01T07:30:41.342Z,1.90
2019-06-01T07:33:06.738Z,2.25
2019-06-01T07:35:34.507Z,2.17
2019-06-01T07:38:01.099Z,2.47
2019-06-01T07:40:28.929Z,2.40
2019-06-01T07:42:55.414Z,2.33
2019-06-01T07:45:22.903Z,2.17
2019-06-01T07:47:50.336Z,2.35
2019-06-01T07:50:17.162Z,1.92
2019-06-01T07:52:43.995Z,2.35
2019-06-01T07:55:11.064Z,2.10
2019-06-01T07:57:37.648Z,1.92
2019-06-01T08:00:04.572Z,2.10
2019-06-01T08:02:38.266Z,2.10
2019-06-01T08:05:04.976Z,2.27
2019-06-01T08:07:32.052Z,2.05
2019-06-01T08:10:02.053Z,2.17
2019-06-01T08:12:29.682Z,1.90
2019-06-01T08:14:56.519Z,2.42
2019-06-01T08:17:24.087Z,2.08
2019-06-01T08:19:52.075Z,2.00
2019-06-01T08:22:18.850Z,1.77
2019-06-01T08:24:45.326Z,1.62
2019-06-01T08:27:13.003Z,1.92
2019-06-01T08:29:40.012Z,1.90
2019-06-01T08:32:11.313Z,1.45
2019-06-01T08:34:40.860Z,1.95
2019-06-01T08:37:07.639Z,2.17
2019-06-01T08:39:34.645Z,1.98
2019-06-01T08:42:01.219Z,1.62
2019-06-01T08:44:27.816Z,1.80
2019-06-01T08:46:54.286Z,1.57
2019-06-01T08:49:20.971Z,1.42
2019-06-01T08:51:47.478Z,1.30
2019-06-01T08:54:14.362Z,1.50
2019-06-01T08:56:41.471Z,1.05
2019-06-01T08:59:08.251Z,1.30
2019-06-01T09:01:35.101Z,1.20
2019-06-01T09:04:02.530Z,1.65
2019-06-01T09:06:35.426Z,1.25
2019-06-01T09:09:05.726Z,1.45
2019-06-01T09:11:35.322Z,1.00
2019-06-01T09:14:08.567Z,1.10
2019-06-01T09:16:38.919Z,1.20
2019-06-01T09:19:05.727Z,2.33
2019-06-01T09:21:33.548Z,1.45
2019-06-01T09:24:00.262Z,1.35
2019-06-01T09:26:27.748Z,1.30
2019-06-01T09:28:58.862Z,1.05
2019-06-01T09:31:28.241Z,1.32
2019-06-01T09:33:55.253Z,1.32
2019-06-01T09:36:22.347Z,1.30
2019-06-01T09:38:50.090Z,1.32
2019-06-01T09:41:17.897Z,1.40
2019-06-01T09:43:45.822Z,1.87
2019-06-01T09:46:12.886Z,1.55
2019-06-01T09:48:39.435Z,1.57
2019-06-01T09:51:10.992Z,1.37
2019-06-01T09:53:38.146Z,1.40
2019-06-01T09:56:05.240Z,1.42
2019-06-01T09:58:32.324Z,1.80
2019-06-01T10:00:59.273Z,1.60
2019-06-01T10:03:25.867Z,1.52
2019-06-01T10:06:02.169Z,1.50
2019-06-01T10:08:27.506Z,1.42
2019-06-01T10:13:25.279Z,1.50
2019-06-01T10:15:51.870Z,1.20
2019-06-01T10:18:18.441Z,1.17
2019-06-01T10:20:44.989Z,1.70
2019-06-01T10:23:11.824Z,1.92
2019-06-01T10:25:38.900Z,1.15
2019-06-01T10:28:05.749Z,1.30
2019-06-01T10:30:33.888Z,1.50
2019-06-01T10:33:00.581Z,1.30
2019-06-01T10:35:27.176Z,1.45
2019-06-01T10:37:55.832Z,1.40
2019-06-01T10:40:22.439Z,1.40
2019-06-01T10:42:50.379Z,1.20
2019-06-01T10:45:17.298Z,1.50
2019-06-01T10:47:46.031Z,1.20
2019-06-01T10:50:17.185Z,1.60
2019-06-01T10:52:44.449Z,1.30
2019-06-01T10:55:11.719Z,1.57
2019-06-01T10:57:40.658Z,1.47
2019-06-01T11:00:08.050Z,1.20
2019-06-01T11:02:34.842Z,1.55
2019-06-01T11:05:01.716Z,1.27
2019-06-01T11:07:28.347Z,1.37
2019-06-01T11:09:54.861Z,1.77
2019-06-01T11:12:21.642Z,1.20
2019-06-01T11:14:48.234Z,1.10
2019-06-01T11:17:14.770Z,1.47
2019-06-01T11:19:42.033Z,1.10
2019-06-01T11:22:08.770Z,1.20
2019-06-01T11:24:35.614Z,1.17
2019-06-01T11:27:04.511Z,1.40
2019-06-01T11:29:31.428Z,1.37
2019-06-01T11:31:58.358Z,1.42
2019-06-01T11:34:26.010Z,1.30
2019-06-01T11:37:04.493Z,1.22
2019-06-01T11:39:22.139Z,1.25
2019-06-01T11:41:50.659Z,1.20
2019-06-01T11:44:18.408Z,1.42
2019-06-01T11:46:45.255Z,1.00
2019-06-01T11:49:14.247Z,1.10
2019-06-01T11:51:45.308Z,1.20
2019-06-01T11:54:41.643Z,1.05
2019-06-01T11:57:12.668Z,1.40
2019-06-01T11:59:39.940Z,1.20
2019-06-01T12:02:07.127Z,1.05
2019-06-01T12:04:36.071Z,1.60
2019-06-01T12:07:16.837Z,1.20
2019-06-01T12:09:31.118Z,0.98
2019-06-01T12:11:58.187Z,1.25
2019-06-01T12:14:25.090Z,1.40
2019-06-01T12:16:51.727Z,1.50
2019-06-01T12:19:18.249Z,1.07
2019-06-01T12:21:45.387Z,1.37
2019-06-01T12:24:13.235Z,1.52
2019-06-01T12:26:43.409Z,1.22
2019-06-01T12:29:10.080Z,1.27
2019-06-01T12:31:37.665Z,1.17
2019-06-01T12:34:04.805Z,1.50
2019-06-01T12:36:34.716Z,1.02
2019-06-01T12:39:01.342Z,1.27
2019-06-01T12:41:27.874Z,1.22
2019-06-01T12:44:19.949Z,1.20
2019-06-01T12:46:56.047Z,1.27
2019-06-01T12:49:22.541Z,1.30
2019-06-01T12:51:49.274Z,1.12
2019-06-01T12:54:15.909Z,1.25
2019-06-01T12:56:43.027Z,1.30
2019-06-01T12:59:12.811Z,1.17
2019-06-01T13:01:43.211Z,1.10
2019-06-01T13:04:10.123Z,1.50
2019-06-01T13:06:37.127Z,1.35
2019-06-01T13:09:06.229Z,0.90
2019-06-01T13:11:32.910Z,1.20
2019-06-01T13:14:04.366Z,1.00
2019-06-01T13:16:30.741Z,1.35
2019-06-01T13:18:57.408Z,1.00
2019-06-01T13:21:45.417Z,1.25
2019-06-01T13:24:12.855Z,1.30
2019-06-01T13:26:39.472Z,1.22
2019-06-01T13:29:06.897Z,1.30
2019-06-01T13:31:33.484Z,1.32
2019-06-01T13:34:00.890Z,1.35
2019-06-01T13:36:27.968Z,1.25
2019-06-01T13:38:55.715Z,1.00
2019-06-01T13:41:23.902Z,1.20
2019-06-01T13:43:51.933Z,1.20
2019-06-01T13:46:19.570Z,1.77
2019-06-01T13:48:55.242Z,1.20
2019-06-01T13:51:24.665Z,1.25
2019-06-01T13:53:52.948Z,0.90
2019-06-01T13:56:19.596Z,1.20
2019-06-01T13:58:46.415Z,1.30
2019-06-01T14:01:13.442Z,1.12
2019-06-01T14:03:40.020Z,1.17
2019-06-01T14:06:06.748Z,1.17
2019-06-01T14:08:36.255Z,1.35
2019-06-01T14:11:02.882Z,1.32
2019-06-01T14:13:29.912Z,1.20
2019-06-01T14:15:56.771Z,1.62
2019-06-01T14:18:29.125Z,1.45
2019-06-01T14:20:56.912Z,1.30
2019-06-01T14:23:25.431Z,1.07
2019-06-01T14:25:52.274Z,1.00
2019-06-01T14:28:18.867Z,1.00
2019-06-01T14:30:46.473Z,1.10
2019-06-01T14:33:13.048Z,1.40
2019-06-01T14:35:40.160Z,1.05
2019-06-01T14:38:08.707Z,1.20
2019-06-01T14:40:35.955Z,1.32
2019-06-01T14:43:02.705Z,1.32
2019-06-01T14:45:29.560Z,1.20
2019-06-01T14:48:01.287Z,1.30
2019-06-01T14:50:29.945Z,1.17
2019-06-01T14:52:57.845Z,1.20
2019-06-01T14:55:24.850Z,1.30
2019-06-01T14:57:52.446Z,1.30
2019-06-01T15:00:19.566Z,1.22
2019-06-01T15:02:46.083Z,1.20
2019-06-01T15:05:13.231Z,1.62
2019-06-01T15:07:39.821Z,1.40
2019-06-01T15:10:06.865Z,1.30
2019-06-01T15:12:33.452Z,1.25
2019-06-01T15:15:01.887Z,1.10
2019-06-01T15:17:29.217Z,1.80
2019-06-01T15:19:56.351Z,1.42
2019-06-01T15:22:23.877Z,1.10
2019-06-01T15:24:59.451Z,1.65
2019-06-01T15:27:26.014Z,0.98
2019-06-01T15:29:52.792Z,1.20
2019-06-01T15:32:19.697Z,1.32
2019-06-01T15:34:46.195Z,1.25
2019-06-01T15:37:12.729Z,1.17
2019-06-01T15:39:39.237Z,1.40
2019-06-01T15:42:07.871Z,1.27
2019-06-01T15:44:37.417Z,1.10
2019-06-01T15:47:06.416Z,1.17
2019-06-01T15:49:33.296Z,1.40
2019-06-01T15:51:59.977Z,1.30
2019-06-01T15:54:26.609Z,1.32
2019-06-01T15:56:54.344Z,1.17
2019-06-01T15:59:21.217Z,1.60
2019-06-01T16:01:49.139Z,1.25
2019-06-01T16:04:22.936Z,1.40
2019-06-01T16:06:52.992Z,1.57
2019-06-01T16:09:19.653Z,1.20
2019-06-01T16:11:49.048Z,3.20
2019-06-01T16:14:15.590Z,1.45
2019-06-01T16:16:42.123Z,1.40
2019-06-01T16:19:11.317Z,1.75
2019-06-01T16:21:38.028Z,1.50
2019-06-01T16:24:04.707Z,1.45
2019-06-01T16:26:31.241Z,1.32
2019-06-01T16:29:00.491Z,1.30
2019-06-01T16:31:27.322Z,1.60
2019-06-01T16:33:54.513Z,1.67
2019-06-01T16:36:26.707Z,1.67
2019-06-01T16:38:59.529Z,1.98
2019-06-01T16:41:24.080Z,1.35
2019-06-01T16:43:50.793Z,1.20
2019-06-01T16:46:17.350Z,1.37
2019-06-01T16:48:44.043Z,1.62
2019-06-01T16:51:10.861Z,1.17
2019-06-01T16:53:37.566Z,1.57
2019-06-01T16:56:06.363Z,1.50
2019-06-01T16:58:33.076Z,1.72
2019-06-01T17:01:00.452Z,1.52
2019-06-01T17:03:28.264Z,1.50
2019-06-01T17:05:54.972Z,1.45
2019-06-01T17:08:21.695Z,1.70
2019-06-01T17:10:48.520Z,1.65
2019-06-01T17:13:15.670Z,1.30
2019-06-01T17:15:56.892Z,2.30
2019-06-01T17:18:24.640Z,2.40
2019-06-01T17:21:21.138Z,2.75
2019-06-01T17:23:59.462Z,1.70
2019-06-01T17:26:26.208Z,1.30
2019-06-01T17:29:06.838Z,1.27
2019-06-01T17:31:53.377Z,1.70
2019-06-01T17:34:06.549Z,1.55
2019-06-01T17:36:37.637Z,1.40
2019-06-01T17:39:09.069Z,1.65
2019-06-01T17:41:36.028Z,1.62
2019-06-01T17:44:02.723Z,1.57
2019-06-01T17:46:30.575Z,1.72
2019-06-01T17:48:57.307Z,1.80
2019-06-01T17:51:24.050Z,2.10
2019-06-01T17:53:53.230Z,1.70
2019-06-01T17:56:19.567Z,1.72
2019-06-01T17:58:46.178Z,1.50
2019-06-01T18:01:13.143Z,1.72
2019-06-01T18:03:39.823Z,2.00
2019-06-01T18:06:07.853Z,1.47
2019-06-01T18:08:34.579Z,1.60
2019-06-01T18:11:03.889Z,1.62
2019-06-01T18:13:33.563Z,1.50
2019-06-01T18:16:26.152Z,2.27
2019-06-01T18:18:53.139Z,1.75
2019-06-01T18:21:20.124Z,1.70
2019-06-01T18:23:49.298Z,1.95
2019-06-01T18:26:20.953Z,1.98
2019-06-01T18:28:47.690Z,1.80
2019-06-01T18:31:17.443Z,2.20
2019-06-01T18:33:45.013Z,2.37
2019-06-01T18:36:15.494Z,2.30
2019-06-01T18:38:51.268Z,1.95
2019-06-01T18:41:20.167Z,1.85
2019-06-01T18:43:53.082Z,1.87
2019-06-01T18:46:19.967Z,1.90
2019-06-01T18:48:47.736Z,1.95
2019-06-01T18:51:14.620Z,1.70
2019-06-01T18:53:41.400Z,1.93
2019-06-01T18:56:08.225Z,1.80
2019-06-01T18:58:35.216Z,2.07
2019-06-01T19:01:04.297Z,2.60
2019-06-01T19:03:30.946Z,1.67
2019-06-01T19:05:58.987Z,1.73
2019-06-01T19:08:25.616Z,1.93
2019-06-01T19:10:52.286Z,1.57
2019-06-01T19:13:47.592Z,2.20
2019-06-01T19:16:17.279Z,1.90
2019-06-01T19:18:44.936Z,1.67
2019-06-01T19:21:12.745Z,1.97
2019-06-01T19:23:39.604Z,1.90
2019-06-01T19:26:10.050Z,2.10
2019-06-01T19:28:35.974Z,2.10
2019-06-01T19:31:02.901Z,1.90
2019-06-01T19:33:30.743Z,2.00
2019-06-01T19:36:25.914Z,2.10
2019-06-01T19:38:58.617Z,2.30
2019-06-01T19:41:26.496Z,2.40
2019-06-01T19:43:54.284Z,2.30
2019-06-01T19:46:21.901Z,1.90
2019-06-01T19:48:48.391Z,1.70
2019-06-01T19:51:16.749Z,2.07
2019-06-01T19:53:43.329Z,2.30
2019-06-01T19:56:10.959Z,1.90
2019-06-01T19:58:38.498Z,2.10
2019-06-01T20:01:08.097Z,2.07
2019-06-01T20:03:35.613Z,1.97
2019-06-01T20:06:02.180Z,2.33
2019-06-01T20:08:28.805Z,2.20
2019-06-01T20:10:55.360Z,2.27
2019-06-01T20:13:23.141Z,1.67
2019-06-01T20:15:49.905Z,1.80
2019-06-01T20:18:17.276Z,2.00
2019-06-01T20:20:52.544Z,2.13
2019-06-01T20:23:19.508Z,2.50
2019-06-01T20:25:46.360Z,2.00
2019-06-01T20:28:13.629Z,2.10
2019-06-01T20:30:47.656Z,2.20
2019-06-01T20:33:20.474Z,2.00
2019-06-01T20:35:47.417Z,2.07
2019-06-01T20:38:14.430Z,2.23
2019-06-01T20:40:40.983Z,2.00
2019-06-01T20:43:07.555Z,2.10
2019-06-01T20:45:34.141Z,1.90
2019-06-01T20:48:02.909Z,2.30
2019-06-01T20:50:29.459Z,2.30
2019-06-01T20:52:56.944Z,2.40
2019-06-01T20:55:24.249Z,2.40
2019-06-01T20:57:50.726Z,2.67
2019-06-01T21:00:18.106Z,2.40
2019-06-01T21:02:44.719Z,2.53
2019-06-01T21:05:11.581Z,2.43
2019-06-01T21:07:38.194Z,2.50
2019-06-01T21:10:04.860Z,2.10
2019-06-01T21:12:44.679Z,2.50
2019-06-01T21:15:01.470Z,2.67
2019-06-01T21:17:28.157Z,2.97
2019-06-01T21:19:57.392Z,2.40
2019-06-01T21:22:24.905Z,2.50
2019-06-01T21:24:55.827Z,3.17
2019-06-01T21:27:22.733Z,2.80
2019-06-01T21:29:49.435Z,2.50
2019-06-01T21:32:17.304Z,2.83
2019-06-01T21:34:44.005Z,2.87
2019-06-01T21:37:10.622Z,3.17
2019-06-01T21:39:37.120Z,3.00
2019-06-01T21:42:03.805Z,2.70
2019-06-01T21:44:30.462Z,2.40
2019-06-01T21:46:57.043Z,2.77
2019-06-01T21:49:24.151Z,2.67
2019-06-01T21:51:53.126Z,3.13
2019-06-01T21:54:20.574Z,2.53
2019-06-01T21:56:48.221Z,2.70
2019-06-01T21:59:16.469Z,2.67
2019-06-01T22:01:44.078Z,3.30
2019-06-01T22:04:11.634Z,2.40
2019-06-01T22:06:38.442Z,2.80
2019-06-01T22:09:05.710Z,2.60
2019-06-01T22:11:35.177Z,2.40
2019-06-01T22:14:03.999Z,2.17
2019-06-01T22:16:31.712Z,2.53
2019-06-01T22:18:58.645Z,2.60
2019-06-01T22:21:25.887Z,2.70
2019-06-01T22:23:53.516Z,2.70
2019-06-01T22:26:20.128Z,2.73
2019-06-01T22:28:47.916Z,2.17
2019-06-01T22:31:14.385Z,2.57
2019-06-01T22:33:41.974Z,2.80
2019-06-01T22:36:08.517Z,2.80
2019-06-01T22:38:35.040Z,2.70
2019-06-01T22:41:02.735Z,3.10
2019-06-01T22:43:43.487Z,2.30
2019-06-01T22:45:57.629Z,2.90
2019-06-01T22:48:35.826Z,3.03
2019-06-01T22:51:02.579Z,3.03
2019-06-01T22:53:29.109Z,2.87
2019-06-01T22:55:55.835Z,2.87
2019-06-01T22:58:23.245Z,3.23
2019-06-01T23:00:49.903Z,2.77
2019-06-01T23:03:16.667Z,3.37
2019-06-01T23:05:43.878Z,3.03
2019-06-01T23:08:10.419Z,3.00
2019-06-01T23:10:37.189Z,3.30
2019-06-01T23:13:04.325Z,2.93
2019-06-01T23:15:31.971Z,2.93
2019-06-01T23:17:58.481Z,3.40
2019-06-01T23:20:25.884Z,3.13
2019-06-01T23:22:52.670Z,3.20
2019-06-01T23:25:19.361Z,2.97
2019-06-01T23:27:45.971Z,3.17
2019-06-01T23:30:12.797Z,2.77
2019-06-01T23:32:39.302Z,2.90
2019-06-01T23:35:06.008Z,2.63
2019-06-01T23:37:32.913Z,3.20
2019-06-01T23:39:59.453Z,3.50
2019-06-01T23:42:26.769Z,3.37
2019-06-01T23:44:53.418Z,3.53
2019-06-01T23:47:20.111Z,3.40
2019-06-01T23:49:46.628Z,3.53
2019-06-01T23:52:13.377Z,3.80
2019-06-01T23:54:39.912Z,4.13
2019-06-01T23:57:06.493Z,4.23
2019-06-01T23:59:35.392Z,3.67
